createdAt,value
2023-02-12T00:01:41.246Z,98792.50
2023-02-12T00:04:10.111Z,98790.02
2023-02-12T00:06:40.472Z,98788.05
2023-02-12T00:09:08.954Z,98779.34
2023-02-12T00:11:38.950Z,98772.73
2023-02-12T00:14:07.689Z,98770.14
2023-02-12T00:16:37.711Z,98768.34
2023-02-12T00:19:06.202Z,98762.16
2023-02-12T00:21:35.776Z,98764.23
2023-02-12T00:24:04.872Z,98775.50
2023-02-12T00:26:33.899Z,98780.86
2023-02-12T00:29:02.761Z,98783.21
2023-02-12T00:31:31.799Z,98788.92
2023-02-12T00:34:00.800Z,98791.07
2023-02-12T00:36:30.641Z,98794.47
2023-02-12T00:39:00.030Z,98797.70
2023-02-12T00:41:28.639Z,98806.48
2023-02-12T00:43:57.206Z,98808.52
2023-02-12T00:46:25.919Z,98812.95
2023-02-12T00:48:55.414Z,98819.92
2023-02-12T00:51:24.489Z,98818.11
2023-02-12T00:53:54.042Z,98823.43
2023-02-12T00:56:23.134Z,98823.83
2023-02-12T00:58:51.580Z,98824.35
2023-02-12T01:01:20.173Z,98826.55
2023-02-12T01:03:48.735Z,98830.90
2023-02-12T01:06:17.528Z,98835.55
2023-02-12T01:08:51.764Z,98839.73
2023-02-12T01:11:20.654Z,98843.30
2023-02-12T01:13:51.694Z,98849.27
2023-02-12T01:16:23.113Z,98854.26
2023-02-12T01:18:55.498Z,98853.49
2023-02-12T01:21:29.661Z,98857.96
2023-02-12T01:23:58.231Z,98864.70
2023-02-12T01:26:26.922Z,98866.73
2023-02-12T01:29:02.598Z,98870.73
2023-02-12T01:31:33.064Z,98877.15
2023-02-12T01:34:02.395Z,98887.22
2023-02-12T01:36:32.875Z,98878.79
2023-02-12T01:39:03.167Z,98882.30
2023-02-12T01:41:36.573Z,98883.17
2023-02-12T01:44:17.311Z,98890.54
2023-02-12T01:46:49.043Z,98894.69
2023-02-12T01:49:32.561Z,98895.22
2023-02-12T01:52:11.747Z,98891.92
2023-02-12T01:54:41.321Z,98895.54
2023-02-12T01:57:10.518Z,98900.45
2023-02-12T01:59:41.087Z,98904.11
2023-02-12T02:02:09.740Z,98900.86
2023-02-12T02:04:45.968Z,98900.67
2023-02-12T02:07:18.895Z,98909.17
2023-02-12T02:09:47.753Z,98907.46
2023-02-12T02:12:34.843Z,98904.05
2023-02-12T02:15:05.697Z,98903.14
2023-02-12T02:17:53.758Z,98904.23
2023-02-12T02:20:43.119Z,98905.98
2023-02-12T02:23:29.866Z,98908.13
2023-02-12T02:26:16.644Z,98913.30
2023-02-12T02:28:54.483Z,98915.31
2023-02-12T02:31:38.398Z,98912.59
2023-02-12T02:34:24.267Z,98906.85
2023-02-12T02:37:00.909Z,98905.73
2023-02-12T02:39:39.086Z,98908.92
2023-02-12T02:42:11.861Z,98915.86
2023-02-12T02:44:57.225Z,98922.84
2023-02-12T02:47:31.700Z,98921.98
2023-02-12T02:50:06.803Z,98929.46
2023-02-12T02:52:52.786Z,98935.48
2023-02-12T02:55:22.543Z,98938.91
2023-02-12T02:58:03.273Z,98932.83
2023-02-12T03:00:36.144Z,98925.58
2023-02-12T03:03:43.924Z,98923.58
2023-02-12T03:06:33.248Z,98918.16
2023-02-12T03:09:10.141Z,98925.25
2023-02-12T03:11:38.609Z,98930.06
2023-02-12T03:14:17.650Z,98930.42
2023-02-12T03:17:12.024Z,98921.08
2023-02-12T03:19:47.152Z,98921.91
2023-02-12T03:22:18.938Z,98922.13
2023-02-12T03:24:51.807Z,98924.19
2023-02-12T03:27:22.911Z,98924.10
2023-02-12T03:29:51.891Z,98923.81
2023-02-12T03:33:01.691Z,98922.40
2023-02-12T03:35:36.147Z,98911.52
2023-02-12T03:38:16.957Z,98909.90
2023-02-12T03:41:17.159Z,98906.29
2023-02-12T03:44:02.139Z,98905.98
2023-02-12T03:46:39.647Z,98903.64
2023-02-12T03:49:12.251Z,98897.52
2023-02-12T03:51:42.169Z,98897.84
2023-02-12T03:54:11.448Z,98892.77
2023-02-12T03:56:45.835Z,98893.52
2023-02-12T03:59:14.254Z,98892.77
2023-02-12T04:01:43.113Z,98886.07
2023-02-12T04:04:11.881Z,98878.52
2023-02-12T04:06:41.953Z,98877.42
2023-02-12T04:09:11.608Z,98873.41
2023-02-12T04:11:59.076Z,98866.64
2023-02-12T04:15:05.930Z,98851.77
2023-02-12T04:17:59.633Z,98831.45
2023-02-12T04:20:53.982Z,98815.84
2023-02-12T04:23:33.857Z,98808.94
2023-02-12T04:26:21.220Z,98796.14
2023-02-12T04:28:57.345Z,98782.13
2023-02-12T04:31:32.059Z,98771.34
2023-02-12T04:34:10.420Z,98760.15
2023-02-12T04:37:07.806Z,98754.27
2023-02-12T04:39:37.897Z,98729.95
2023-02-12T04:42:07.478Z,98728.28
2023-02-12T04:44:42.169Z,98720.48
2023-02-12T04:47:14.384Z,98717.38
2023-02-12T04:49:43.440Z,98712.92
2023-02-12T04:52:11.879Z,98706.74
2023-02-12T04:54:40.366Z,98708.12
2023-02-12T04:57:09.623Z,98699.14
2023-02-12T04:59:39.336Z,98699.80
2023-02-12T05:02:08.042Z,98697.48
2023-02-12T05:04:37.266Z,98691.16
2023-02-12T05:07:05.725Z,98688.06
2023-02-12T05:09:34.171Z,98685.54
2023-02-12T05:12:07.887Z,98679.30
2023-02-12T05:14:36.517Z,98675.52
2023-02-12T05:17:05.148Z,98670.02
2023-02-12T05:19:37.598Z,98658.78
2023-02-12T05:22:06.125Z,98663.23
2023-02-12T05:24:34.592Z,98662.33
2023-02-12T05:27:03.878Z,98661.39
2023-02-12T05:29:32.512Z,98655.50
2023-02-12T05:32:01.197Z,98650.89
2023-02-12T05:34:30.161Z,98648.63
2023-02-12T05:36:59.077Z,98635.39
2023-02-12T05:39:27.708Z,98637.02
2023-02-12T05:41:56.456Z,98633.34
2023-02-12T05:44:24.907Z,98627.14
2023-02-12T05:46:53.373Z,98623.86
2023-02-12T05:49:21.801Z,98625.48
2023-02-12T05:51:50.358Z,98612.38
2023-02-12T05:54:19.318Z,98607.84
2023-02-12T05:56:47.919Z,98606.83
2023-02-12T05:59:18.995Z,98598.15
2023-02-12T06:01:48.527Z,98593.63
2023-02-12T06:04:19.534Z,98587.83
2023-02-12T06:06:50.965Z,98584.46
2023-02-12T06:09:19.713Z,98579.73
2023-02-12T06:11:50.561Z,98566.92
2023-02-12T06:14:20.262Z,98558.61
2023-02-12T06:16:53.399Z,98557.27
2023-02-12T06:19:22.336Z,98548.75
2023-02-12T06:21:50.821Z,98536.86
2023-02-12T06:24:19.678Z,98524.90
2023-02-12T06:26:50.204Z,98512.83
2023-02-12T06:29:22.062Z,98500.15
2023-02-12T06:31:50.617Z,98497.56
2023-02-12T06:34:19.430Z,98488.55
2023-02-12T06:36:48.244Z,98471.35
2023-02-12T06:39:17.268Z,98457.84
2023-02-12T06:41:45.866Z,98449.98
2023-02-12T06:44:14.397Z,98442.70
2023-02-12T06:46:42.906Z,98429.67
2023-02-12T06:49:13.089Z,98423.54
2023-02-12T06:51:41.579Z,98417.10
2023-02-12T06:54:14.531Z,98406.33
2023-02-12T06:56:45.405Z,98393.92
2023-02-12T06:59:15.571Z,98351.63
2023-02-12T07:01:46.481Z,98279.16
2023-02-12T07:04:16.057Z,98265.96
2023-02-12T07:06:45.079Z,98210.11
2023-02-12T07:09:14.131Z,98167.55
2023-02-12T07:11:42.830Z,98127.18
2023-02-12T07:14:15.987Z,98098.42
2023-02-12T07:16:44.893Z,98070.89
2023-02-12T07:19:14.673Z,98051.05
2023-02-12T07:21:43.428Z,98028.13
2023-02-12T07:24:19.897Z,98006.19
2023-02-12T07:26:48.549Z,97987.73
2023-02-12T07:29:17.400Z,97977.75
2023-02-12T07:31:46.906Z,97960.85
2023-02-12T07:34:15.505Z,97950.63
2023-02-12T07:36:47.195Z,97941.95
2023-02-12T07:39:16.277Z,97929.50
2023-02-12T07:41:45.242Z,97916.76
2023-02-12T07:44:16.299Z,97908.67
2023-02-12T07:46:48.299Z,97906.15
2023-02-12T07:49:22.001Z,97900.00
2023-02-12T07:51:50.665Z,97909.77
2023-02-12T07:54:19.510Z,97921.75
2023-02-12T07:56:48.225Z,97928.80
2023-02-12T07:59:18.459Z,97929.55
2023-02-12T08:01:48.695Z,97918.15
2023-02-12T08:04:19.448Z,97906.37
2023-02-12T08:06:50.073Z,97899.91
2023-02-12T08:09:25.346Z,97901.70
2023-02-12T08:11:53.928Z,97915.61
2023-02-12T08:14:23.102Z,97912.80
2023-02-12T08:16:51.722Z,97908.26
2023-02-12T08:19:24.926Z,97906.46
2023-02-12T08:21:55.882Z,97922.00
2023-02-12T08:24:25.133Z,97963.45
2023-02-12T08:26:53.844Z,98016.23
2023-02-12T08:29:25.638Z,98070.86
2023-02-12T08:31:59.762Z,98146.09
2023-02-12T08:34:30.608Z,98225.27
2023-02-12T08:36:59.478Z,98318.09
2023-02-12T08:39:29.338Z,98406.89
2023-02-12T08:42:00.353Z,98504.42
2023-02-12T08:44:29.623Z,98596.95
2023-02-12T08:46:58.776Z,98670.36
2023-02-12T08:49:29.173Z,98716.13
2023-02-12T08:51:58.454Z,98762.23
2023-02-12T08:54:30.103Z,98821.05
2023-02-12T08:57:01.272Z,98868.38
2023-02-12T08:59:30.035Z,98900.89
2023-02-12T09:02:01.264Z,98932.48
2023-02-12T09:04:31.499Z,98980.94
2023-02-12T09:07:00.088Z,99047.28
2023-02-12T09:09:28.647Z,99142.80
2023-02-12T09:12:01.177Z,99229.08
2023-02-12T09:14:30.349Z,99302.45
2023-02-12T09:16:58.884Z,99345.10
2023-02-12T09:19:27.766Z,99370.75
2023-02-12T09:21:57.112Z,99402.23
2023-02-12T09:24:27.981Z,99454.08
2023-02-12T09:26:57.638Z,99546.54
2023-02-12T09:29:26.120Z,99596.11
2023-02-12T09:31:54.941Z,99611.58
2023-02-12T09:34:25.076Z,99635.50
2023-02-12T09:36:54.415Z,99676.26
2023-02-12T09:39:23.579Z,99717.45
2023-02-12T09:41:57.834Z,99747.95
2023-02-12T09:44:38.212Z,99750.81
2023-02-12T09:47:09.642Z,99758.91
2023-02-12T09:50:18.507Z,99762.78
2023-02-12T09:52:47.993Z,99759.30
2023-02-12T09:55:17.230Z,99743.37
2023-02-12T09:57:45.803Z,99720.34
2023-02-12T10:00:31.916Z,99714.30
2023-02-12T10:03:05.138Z,99713.26
2023-02-12T10:05:42.264Z,99730.73
2023-02-12T10:08:46.326Z,99733.08
2023-02-12T10:11:18.410Z,99727.59
2023-02-12T10:13:54.191Z,99727.83
2023-02-12T10:16:44.250Z,99740.06
2023-02-12T10:19:50.173Z,99749.10
2023-02-12T10:22:25.399Z,99780.80
2023-02-12T10:25:03.374Z,99815.77
2023-02-12T10:27:46.409Z,99844.77
2023-02-12T10:30:47.476Z,99858.10
2023-02-12T10:33:22.126Z,99861.99
2023-02-12T10:35:53.834Z,99872.70
2023-02-12T10:38:26.374Z,99878.71
2023-02-12T10:40:57.967Z,99873.23
2023-02-12T10:43:26.658Z,99873.32
2023-02-12T10:45:55.450Z,99869.09
2023-02-12T10:48:37.001Z,99884.15
2023-02-12T10:51:17.568Z,99900.27
2023-02-12T10:53:46.498Z,99912.95
2023-02-12T10:56:25.066Z,99909.11
2023-02-12T10:58:56.128Z,99919.30
2023-02-12T11:01:31.315Z,99929.58
2023-02-12T11:04:01.848Z,99931.08
2023-02-12T11:06:33.102Z,99937.23
2023-02-12T11:09:01.886Z,99944.12
2023-02-12T11:11:31.652Z,99948.48
2023-02-12T11:14:04.186Z,99961.77
2023-02-12T11:16:41.672Z,99973.55
2023-02-12T11:19:22.216Z,99986.04
2023-02-12T11:21:51.736Z,99990.54
2023-02-12T11:24:38.390Z,100000.71
2023-02-12T11:27:15.984Z,100009.16
2023-02-12T11:29:49.171Z,100505.36
2023-02-12T11:32:19.236Z,100831.15
2023-02-12T11:35:10.630Z,100826.80
2023-02-12T11:37:46.349Z,100836.20
2023-02-12T11:40:23.706Z,100844.61
2023-02-12T11:42:55.047Z,100852.13
2023-02-12T11:45:28.578Z,100851.61
2023-02-12T11:47:57.070Z,100855.73
2023-02-12T11:50:28.638Z,100857.36
2023-02-12T11:53:02.417Z,100858.44
2023-02-12T11:55:36.347Z,100865.81
2023-02-12T11:58:20.776Z,100870.23
2023-02-12T12:01:08.190Z,100876.78
2023-02-12T12:04:08.151Z,100874.15
2023-02-12T12:07:20.547Z,100879.92
2023-02-12T12:10:16.819Z,100882.73
2023-02-12T12:12:57.802Z,100891.09
2023-02-12T12:15:53.024Z,100886.72
2023-02-12T12:19:03.305Z,100884.78
2023-02-12T12:21:44.055Z,100883.52
2023-02-12T12:24:23.164Z,100887.02
2023-02-12T12:27:03.536Z,100883.08
2023-02-12T12:29:50.154Z,100883.52
2023-02-12T12:32:18.887Z,100888.35
2023-02-12T12:34:47.745Z,100881.96
2023-02-12T12:37:33.677Z,100884.03
2023-02-12T12:40:33.818Z,100885.88
2023-02-12T12:43:11.052Z,100883.02
2023-02-12T12:45:54.651Z,100878.64
2023-02-12T12:48:32.174Z,100882.52
2023-02-12T12:51:00.796Z,100882.67
2023-02-12T12:53:48.047Z,100890.88
2023-02-12T12:56:26.973Z,100895.08
2023-02-12T12:59:13.651Z,100896.19
2023-02-12T13:01:42.087Z,100897.05
2023-02-12T13:04:23.001Z,100895.77
2023-02-12T13:07:09.744Z,100895.34
2023-02-12T13:09:57.686Z,100898.02
2023-02-12T13:12:58.122Z,100900.13
2023-02-12T13:15:46.144Z,100906.75
2023-02-12T13:18:19.264Z,100910.89
2023-02-12T13:20:59.136Z,100908.78
2023-02-12T13:23:30.458Z,100908.60
2023-02-12T13:26:02.196Z,100912.70
2023-02-12T13:28:38.075Z,100912.41
2023-02-12T13:31:32.022Z,100913.38
2023-02-12T13:34:06.277Z,100919.46
2023-02-12T13:36:36.623Z,100920.08
2023-02-12T13:39:25.542Z,100923.42
2023-02-12T13:42:27.438Z,100927.92
2023-02-12T13:45:01.903Z,100933.95
2023-02-12T13:47:34.398Z,100932.63
2023-02-12T13:50:35.353Z,100931.23
2023-02-12T13:53:17.342Z,100937.38
2023-02-12T13:56:10.292Z,100939.98
2023-02-12T13:58:50.702Z,100936.63
2023-02-12T14:01:43.754Z,100935.27
2023-02-12T14:04:24.954Z,100932.54
2023-02-12T14:07:05.392Z,100944.94
2023-02-12T14:09:47.027Z,100949.27
2023-02-12T14:12:26.129Z,100949.00
2023-02-12T14:14:57.107Z,100952.15
2023-02-12T14:17:29.282Z,100952.98
2023-02-12T14:20:21.158Z,100959.29
2023-02-12T14:22:50.077Z,100961.13
2023-02-12T14:25:24.320Z,100964.75
2023-02-12T14:28:07.976Z,100969.98
2023-02-12T14:30:39.896Z,100974.45
2023-02-12T14:33:21.736Z,100976.13
2023-02-12T14:36:10.525Z,100979.20
2023-02-12T14:38:47.600Z,100982.24
2023-02-12T14:41:34.310Z,100992.67
2023-02-12T14:44:27.740Z,101001.73
2023-02-12T14:47:00.628Z,101005.66
2023-02-12T14:49:34.909Z,101013.30
2023-02-12T14:52:14.988Z,101014.06
2023-02-12T14:54:43.415Z,101020.27
2023-02-12T14:57:27.190Z,101025.95
2023-02-12T14:59:59.958Z,101026.52
2023-02-12T15:02:29.690Z,101027.68
2023-02-12T15:05:03.042Z,101031.80
2023-02-12T15:07:43.973Z,101036.28
2023-02-12T15:10:34.254Z,101040.36
2023-02-12T15:13:02.689Z,101048.71
2023-02-12T15:15:47.916Z,101050.90
2023-02-12T15:18:22.213Z,101056.96
2023-02-12T15:20:59.832Z,101063.86
2023-02-12T15:23:37.789Z,101065.85
2023-02-12T15:26:07.467Z,101073.69
2023-02-12T15:28:37.779Z,101083.42
2023-02-12T15:31:10.875Z,101084.16
2023-02-12T15:33:46.469Z,101087.65
2023-02-12T15:36:19.577Z,101088.33
2023-02-12T15:38:53.008Z,101098.34
2023-02-12T15:41:33.967Z,101102.98
2023-02-12T15:44:04.936Z,101106.40
2023-02-12T15:46:34.172Z,101117.77
2023-02-12T15:49:19.181Z,101119.58
2023-02-12T15:51:47.725Z,101122.22
2023-02-12T15:54:16.702Z,101124.72
2023-02-12T15:56:45.108Z,101126.69
2023-02-12T15:59:22.534Z,101129.42
2023-02-12T16:02:30.172Z,101134.08
2023-02-12T16:04:59.208Z,101141.56
2023-02-12T16:07:29.903Z,101153.65
2023-02-12T16:10:00.984Z,101159.13
2023-02-12T16:12:31.668Z,101161.59
2023-02-12T16:15:03.682Z,101164.22
2023-02-12T16:17:37.187Z,101170.88
2023-02-12T16:20:20.903Z,101171.75
2023-02-12T16:22:50.063Z,101179.11
2023-02-12T16:25:32.747Z,101179.45
2023-02-12T16:28:21.260Z,101184.55
2023-02-12T16:30:50.021Z,101189.83
2023-02-12T16:33:59.546Z,101194.74
2023-02-12T16:36:30.707Z,101195.92
2023-02-12T16:39:04.734Z,101202.98
2023-02-12T16:41:34.499Z,101199.48
2023-02-12T16:44:03.513Z,101203.84
2023-02-12T16:46:33.559Z,101202.91
2023-02-12T16:49:02.148Z,101206.69
2023-02-12T16:51:32.553Z,101211.89
2023-02-12T16:54:03.014Z,101215.59
2023-02-12T16:56:34.554Z,101213.09
2023-02-12T16:59:03.180Z,101215.19
2023-02-12T17:01:34.148Z,101214.66
2023-02-12T17:04:08.163Z,101215.58
2023-02-12T17:06:36.715Z,101215.44
2023-02-12T17:09:05.432Z,101213.90
2023-02-12T17:11:33.910Z,101214.15
2023-02-12T17:14:02.533Z,101213.66
2023-02-12T17:16:32.328Z,101217.03
2023-02-12T17:19:06.988Z,101219.21
2023-02-12T17:21:39.870Z,101223.14
2023-02-12T17:24:22.496Z,101218.41
2023-02-12T17:26:51.480Z,101211.27
2023-02-12T17:29:21.047Z,101214.30
2023-02-12T17:31:50.507Z,101213.93
2023-02-12T17:34:19.200Z,101216.19
2023-02-12T17:36:48.039Z,101217.73
2023-02-12T17:39:16.895Z,101221.73
2023-02-12T17:41:46.487Z,101216.06
2023-02-12T17:44:15.847Z,101221.86
2023-02-12T17:46:45.561Z,101229.98
2023-02-12T17:49:13.996Z,101226.26
2023-02-12T17:51:43.644Z,101227.95
2023-02-12T17:54:12.651Z,101227.39
2023-02-12T17:56:41.818Z,101234.61
2023-02-12T17:59:10.514Z,101234.38
2023-02-12T18:01:40.621Z,101237.88
2023-02-12T18:04:09.662Z,101237.03
2023-02-12T18:06:39.334Z,101239.25
2023-02-12T18:09:07.786Z,101246.19
2023-02-12T18:11:38.255Z,101251.86
2023-02-12T18:14:06.714Z,101258.93
2023-02-12T18:16:36.734Z,101264.42
2023-02-12T18:19:06.061Z,101271.06
2023-02-12T18:21:35.261Z,101274.23
2023-02-12T18:24:04.286Z,101278.09
2023-02-12T18:26:33.190Z,101279.46
2023-02-12T18:29:01.975Z,101278.85
2023-02-12T18:31:30.891Z,101280.31
2023-02-12T18:34:00.220Z,101275.69
2023-02-12T18:36:30.442Z,101276.88
2023-02-12T18:39:02.732Z,101282.30
2023-02-12T18:41:32.336Z,101289.47
2023-02-12T18:44:01.225Z,101289.40
2023-02-12T18:46:30.976Z,101295.67
2023-02-12T18:48:59.629Z,101297.58
2023-02-12T18:51:29.879Z,101301.71
2023-02-12T18:54:03.049Z,101302.52
2023-02-12T18:56:34.549Z,101299.45
2023-02-12T18:59:05.276Z,101304.01
2023-02-12T19:01:35.052Z,101302.23
2023-02-12T19:04:04.885Z,101302.70
2023-02-12T19:06:34.617Z,101304.56
2023-02-12T19:09:05.015Z,101315.38
2023-02-12T19:11:35.154Z,101312.98
2023-02-12T19:14:03.832Z,101316.08
2023-02-12T19:16:33.759Z,101320.04
2023-02-12T19:19:03.234Z,101314.95
2023-02-12T19:21:32.700Z,101321.08
2023-02-12T19:24:02.244Z,101325.85
2023-02-12T19:26:31.893Z,101327.19
2023-02-12T19:29:01.323Z,101335.39
2023-02-12T19:31:41.189Z,101343.45
2023-02-12T19:34:17.316Z,101346.67
2023-02-12T19:36:46.443Z,101350.34
2023-02-12T19:39:16.973Z,101351.63
2023-02-12T19:41:47.267Z,101356.63
2023-02-12T19:44:20.707Z,101357.23
2023-02-12T19:46:49.242Z,101364.14
2023-02-12T19:49:20.238Z,101364.38
2023-02-12T19:51:48.970Z,101368.15
2023-02-12T19:54:18.188Z,101367.72
2023-02-12T19:56:46.714Z,101372.75
2023-02-12T19:59:17.575Z,101375.16
2023-02-12T20:01:47.184Z,101376.90
2023-02-12T20:04:18.916Z,101378.80
2023-02-12T20:06:47.760Z,101382.14
2023-02-12T20:09:17.067Z,101384.05
2023-02-12T20:11:45.626Z,101389.50
2023-02-12T20:14:14.372Z,101393.96
2023-02-12T20:16:44.942Z,101399.24
2023-02-12T20:19:25.039Z,101399.43
2023-02-12T20:21:56.135Z,101401.96
2023-02-12T20:24:29.935Z,101404.45
2023-02-12T20:26:59.748Z,101402.86
2023-02-12T20:29:29.075Z,101401.08
2023-02-12T20:31:57.686Z,101399.29
2023-02-12T20:34:26.451Z,101401.61
2023-02-12T20:36:55.081Z,101399.86
2023-02-12T20:39:24.621Z,101398.83
2023-02-12T20:41:54.454Z,101401.35
2023-02-12T20:44:23.310Z,101401.88
2023-02-12T20:46:56.411Z,101396.98
2023-02-12T20:49:26.344Z,101398.42
2023-02-12T20:51:54.971Z,101398.33
2023-02-12T20:54:26.177Z,101397.04
2023-02-12T20:56:55.289Z,101395.23
2023-02-12T20:59:23.769Z,101394.46
2023-02-12T21:01:52.746Z,101400.77
2023-02-12T21:04:21.544Z,101397.74
2023-02-12T21:06:50.060Z,101398.52
2023-02-12T21:09:20.096Z,101398.96
2023-02-12T21:11:49.736Z,101402.77
2023-02-12T21:14:22.330Z,101407.14
2023-02-12T21:16:55.826Z,101405.48
2023-02-12T21:19:25.940Z,101405.60
2023-02-12T21:21:54.864Z,101401.83
2023-02-12T21:24:26.423Z,101405.29
2023-02-12T21:26:55.578Z,101408.69
2023-02-12T21:29:27.739Z,101408.94
2023-02-12T21:31:57.120Z,101410.72
2023-02-12T21:34:25.858Z,101414.29
2023-02-12T21:36:55.584Z,101416.27
2023-02-12T21:39:27.783Z,101415.29
2023-02-12T21:42:03.206Z,101413.53
2023-02-12T21:44:35.549Z,101417.20
2023-02-12T21:47:04.699Z,101423.48
2023-02-12T21:49:33.679Z,101421.50
2023-02-12T21:52:06.966Z,101422.12
2023-02-12T21:54:35.537Z,101426.29
2023-02-12T21:57:04.076Z,101425.34
2023-02-12T21:59:32.748Z,101421.61
2023-02-12T22:02:02.323Z,101415.61
2023-02-12T22:04:33.528Z,101424.11
2023-02-12T22:07:03.775Z,101422.95
2023-02-12T22:09:35.638Z,101429.23
2023-02-12T22:12:05.435Z,101428.67
2023-02-12T22:14:37.300Z,101431.83
2023-02-12T22:17:06.107Z,101431.85
2023-02-12T22:19:35.138Z,101433.98
2023-02-12T22:22:03.885Z,101439.10
2023-02-12T22:24:32.876Z,101438.40
2023-02-12T22:27:01.261Z,101439.63
2023-02-12T22:29:30.114Z,101441.71
2023-02-12T22:31:58.745Z,101447.77
2023-02-12T22:34:27.668Z,101451.91
2023-02-12T22:36:56.112Z,101453.98
2023-02-12T22:39:24.769Z,101455.00
2023-02-12T22:41:53.630Z,101464.42
2023-02-12T22:44:22.527Z,101465.60
2023-02-12T22:46:51.204Z,101470.45
2023-02-12T22:49:20.087Z,101471.13
2023-02-12T22:51:48.550Z,101475.11
2023-02-12T22:54:18.436Z,101476.64
2023-02-12T22:56:50.271Z,101478.65
2023-02-12T22:59:18.867Z,101478.55
2023-02-12T23:01:47.747Z,101480.38
2023-02-12T23:04:18.073Z,101481.37
2023-02-12T23:06:46.756Z,101488.90
2023-02-12T23:09:19.293Z,101495.86
2023-02-12T23:11:48.265Z,101505.12
2023-02-12T23:14:17.990Z,101502.78
2023-02-12T23:16:47.919Z,101504.65
2023-02-12T23:19:16.442Z,101504.77
2023-02-12T23:21:45.245Z,101506.12
2023-02-12T23:24:15.261Z,101510.42
2023-02-12T23:26:44.743Z,101515.27
2023-02-12T23:29:13.332Z,101522.75
2023-02-12T23:31:41.978Z,101526.70
2023-02-12T23:34:10.839Z,101526.96
2023-02-12T23:36:39.305Z,101530.00
2023-02-12T23:39:09.652Z,101535.33
2023-02-12T23:41:38.393Z,101539.75
2023-02-12T23:44:07.478Z,101540.36
2023-02-12T23:46:36.034Z,101547.77
2023-02-12T23:49:04.888Z,101546.59
2023-02-12T23:51:33.542Z,101546.27
2023-02-12T23:54:03.284Z,101549.97
2023-02-12T23:56:32.372Z,101547.85
2023-02-12T23:59:01.803Z,101543.46
